createdAt,value
2018-06-22T00:01:06.762Z,101947.63
2018-06-22T00:03:34.972Z,101946.52
2018-06-22T00:06:03.172Z,101946.88
2018-06-22T00:08:31.384Z,101945.33
2018-06-22T00:10:59.567Z,101953.19
2018-06-22T00:13:27.792Z,101954.06
2018-06-22T00:15:56.034Z,101957.20
2018-06-22T00:18:24.232Z,101953.09
2018-06-22T00:20:52.417Z,101954.17
2018-06-22T00:23:20.640Z,101946.32
2018-06-22T00:25:48.821Z,101948.13
2018-06-22T00:28:17.180Z,101945.23
2018-06-22T00:30:45.355Z,101944.88
2018-06-22T00:33:13.540Z,101940.28
2018-06-22T00:35:41.749Z,101940.28
2018-06-22T00:38:09.948Z,101943.91
2018-06-22T00:40:38.159Z,101942.09
2018-06-22T00:43:06.358Z,101932.52
2018-06-22T00:45:34.653Z,101934.09
2018-06-22T00:48:02.862Z,101923.81
2018-06-22T00:50:31.163Z,101929.50
2018-06-22T00:52:59.405Z,101925.39
2018-06-22T00:55:27.612Z,101929.98
2018-06-22T00:57:55.789Z,101919.95
2018-06-22T01:00:24.013Z,101924.55
2018-06-22T01:02:52.232Z,101918.37
2018-06-22T01:05:20.413Z,101913.30
2018-06-22T01:07:48.592Z,101904.84
2018-06-22T01:10:16.826Z,101902.55
2018-06-22T01:12:45.024Z,101899.73
2018-06-22T01:15:13.248Z,101900.22
2018-06-22T01:17:41.464Z,101895.17
2018-06-22T01:20:09.636Z,101892.52
2018-06-22T01:22:37.824Z,101903.88
2018-06-22T01:25:06.066Z,101909.11
2018-06-22T01:27:34.296Z,101905.23
2018-06-22T01:30:02.481Z,101902.22
2018-06-22T01:32:30.676Z,101909.95
2018-06-22T01:34:58.900Z,101901.85
2018-06-22T01:37:27.178Z,101909.49
2018-06-22T01:39:55.512Z,101903.91
2018-06-22T01:42:23.739Z,101904.17
2018-06-22T01:44:51.958Z,101903.45
2018-06-22T01:47:20.201Z,101904.92
2018-06-22T01:49:48.521Z,101904.77
2018-06-22T01:52:17.016Z,101903.33
2018-06-22T01:54:45.284Z,101913.95
2018-06-22T01:57:13.529Z,101911.68
2018-06-22T01:59:41.745Z,101917.11
2018-06-22T02:02:10.045Z,101917.95
2018-06-22T02:04:38.278Z,101919.77
2018-06-22T02:07:06.568Z,101915.76
2018-06-22T02:09:34.772Z,101914.22
2018-06-22T02:12:03.013Z,101916.49
2018-06-22T02:14:31.245Z,101919.88
2018-06-22T02:16:59.482Z,101912.74
2018-06-22T02:19:27.732Z,101910.70
2018-06-22T02:21:55.965Z,101910.47
2018-06-22T02:24:24.180Z,101917.33
2018-06-22T02:26:52.642Z,101914.44
2018-06-22T02:29:20.897Z,101913.12
2018-06-22T02:31:49.160Z,101908.89
2018-06-22T02:34:17.369Z,101901.28
2018-06-22T02:36:45.575Z,101897.64
2018-06-22T02:39:14.093Z,101889.92
2018-06-22T02:41:42.317Z,101899.34
2018-06-22T02:44:10.572Z,101897.05
2018-06-22T02:46:38.844Z,101896.09
2018-06-22T02:49:07.098Z,101891.36
2018-06-22T02:51:35.314Z,101885.08
2018-06-22T02:54:03.589Z,101890.06
2018-06-22T02:56:31.864Z,101887.87
2018-06-22T02:59:00.089Z,101895.62
2018-06-22T03:01:28.318Z,101891.13
2018-06-22T03:03:56.521Z,101889.32
2018-06-22T03:06:24.804Z,101893.33
2018-06-22T03:08:53.073Z,101900.45
2018-06-22T03:11:21.422Z,101902.72
2018-06-22T03:13:49.637Z,101892.45
2018-06-22T03:16:17.847Z,101890.40
2018-06-22T03:18:46.082Z,101896.92
2018-06-22T03:21:14.457Z,101899.97
2018-06-22T03:23:42.904Z,101887.86
2018-06-22T03:26:11.173Z,101895.83
2018-06-22T03:28:39.395Z,101895.84
2018-06-22T03:31:08.250Z,101902.48
2018-06-22T03:33:36.482Z,101898.13
2018-06-22T03:36:04.925Z,101893.28
2018-06-22T03:38:33.201Z,101893.12
2018-06-22T03:41:01.397Z,101895.66
2018-06-22T03:43:29.617Z,101893.50
2018-06-22T03:45:57.829Z,101889.72
2018-06-22T03:48:26.212Z,101888.50
2018-06-22T03:50:54.436Z,101884.91
2018-06-22T03:53:22.645Z,101878.14
2018-06-22T03:55:50.853Z,101884.91
2018-06-22T03:58:19.108Z,101877.55
2018-06-22T04:00:47.412Z,101882.88
2018-06-22T04:03:15.716Z,101878.80
2018-06-22T04:05:43.926Z,101884.19
2018-06-22T04:08:12.147Z,101877.95
2018-06-22T04:10:40.370Z,101878.09
2018-06-22T04:13:08.664Z,101879.28
2018-06-22T04:15:36.891Z,101874.53
2018-06-22T04:18:05.153Z,101880.06
2018-06-22T04:20:33.386Z,101872.96
2018-06-22T04:23:01.633Z,101865.13
2018-06-22T04:25:29.921Z,101874.19
2018-06-22T04:27:58.232Z,101868.51
2018-06-22T04:30:26.461Z,101863.45
2018-06-22T04:32:54.834Z,101861.38
2018-06-22T04:35:23.037Z,101866.57
2018-06-22T04:37:51.248Z,101874.19
2018-06-22T04:40:19.526Z,101869.33
2018-06-22T04:42:48.669Z,101862.08
2018-06-22T04:45:16.985Z,101863.91
2018-06-22T04:47:45.231Z,101872.58
2018-06-22T04:50:13.516Z,101867.39
2018-06-22T04:52:41.797Z,101863.55
2018-06-22T04:55:10.044Z,101873.56
2018-06-22T04:57:38.245Z,101872.12
2018-06-22T05:00:06.591Z,101876.81
2018-06-22T05:02:34.809Z,101876.67
2018-06-22T05:05:03.130Z,101875.72
2018-06-22T05:07:31.408Z,101883.58
2018-06-22T05:09:59.705Z,101887.66
2018-06-22T05:12:27.997Z,101890.22
2018-06-22T05:14:56.212Z,101886.97
2018-06-22T05:17:24.458Z,101888.09
2018-06-22T05:19:52.692Z,101892.92
2018-06-22T05:22:20.953Z,101894.92
2018-06-22T05:24:49.242Z,101906.03
2018-06-22T05:27:17.443Z,101910.84
2018-06-22T05:29:45.678Z,101906.66
2018-06-22T05:32:13.970Z,101908.09
2018-06-22T05:34:42.223Z,101912.00
2018-06-22T05:37:10.449Z,101920.69
2018-06-22T05:39:39.165Z,101908.63
2018-06-22T05:42:07.549Z,101914.67
2018-06-22T05:44:35.774Z,101914.44
2018-06-22T05:47:03.989Z,101920.34
2018-06-22T05:49:32.211Z,101913.47
2018-06-22T05:52:00.486Z,101911.30
2018-06-22T05:54:28.697Z,101906.70
2018-06-22T05:56:56.925Z,101904.55
2018-06-22T05:59:25.129Z,101906.70
2018-06-22T06:01:53.808Z,101903.95
2018-06-22T06:04:22.025Z,101905.38
2018-06-22T06:06:50.321Z,101912.14
2018-06-22T06:09:18.584Z,101917.69
2018-06-22T06:11:46.821Z,101916.98
2018-06-22T06:14:15.065Z,101927.11
2018-06-22T06:16:43.278Z,101927.26
2018-06-22T06:19:11.681Z,101926.16
2018-06-22T06:21:39.932Z,101930.50
2018-06-22T06:24:08.228Z,101926.29
2018-06-22T06:26:36.494Z,101914.70
2018-06-22T06:29:04.716Z,101912.52
2018-06-22T06:31:32.924Z,101920.84
2018-06-22T06:34:01.135Z,101915.29
2018-06-22T06:36:30.101Z,101923.62
2018-06-22T06:38:58.297Z,101919.28
2018-06-22T06:41:26.597Z,101930.73
2018-06-22T06:43:54.867Z,101931.09
2018-06-22T06:46:23.122Z,101921.30
2018-06-22T06:48:51.350Z,101925.78
2018-06-22T06:51:19.661Z,101928.20
2018-06-22T06:53:47.881Z,101937.48
2018-06-22T06:56:16.157Z,101926.59
2018-06-22T06:58:44.365Z,101926.36
2018-06-22T07:01:12.597Z,101950.05
2018-06-22T07:03:40.919Z,101939.53
2018-06-22T07:06:09.127Z,101940.62
2018-06-22T07:08:37.403Z,101942.44
2018-06-22T07:11:05.669Z,101943.03
2018-06-22T07:13:33.977Z,101946.06
2018-06-22T07:16:02.209Z,101956.45
2018-06-22T07:18:30.446Z,101944.97
2018-06-22T07:20:58.733Z,101946.06
2018-06-22T07:23:26.941Z,101946.15
2018-06-22T07:25:55.185Z,101943.61
2018-06-22T07:28:23.524Z,101952.19
2018-06-22T07:30:51.741Z,101952.44
2018-06-22T07:33:19.967Z,101950.98
2018-06-22T07:35:48.389Z,101958.23
2018-06-22T07:38:16.760Z,101960.17
2018-06-22T07:40:45.012Z,101962.71
2018-06-22T07:43:13.244Z,101961.17
2018-06-22T07:45:41.481Z,101953.03
2018-06-22T07:48:09.676Z,101964.88
2018-06-22T07:50:37.904Z,101961.58
2018-06-22T07:53:06.157Z,101961.21
2018-06-22T07:55:34.416Z,101960.69
2018-06-22T07:58:02.641Z,101967.62
2018-06-22T08:00:31.040Z,101962.54
2018-06-22T08:02:59.294Z,101963.14
2018-06-22T08:05:27.528Z,101973.67
2018-06-22T08:07:55.789Z,101959.77
2018-06-22T08:10:24.004Z,101954.69
2018-06-22T08:12:52.237Z,101962.42
2018-06-22T08:15:20.464Z,101978.55
2018-06-22T08:17:48.709Z,101978.31
2018-06-22T08:20:16.957Z,101976.85
2018-06-22T08:22:45.164Z,101980.73
2018-06-22T08:25:13.489Z,101980.84
2018-06-22T08:27:41.737Z,101980.84
2018-06-22T08:30:10.021Z,101980.84
2018-06-22T08:32:38.272Z,101986.05
2018-06-22T08:35:07.033Z,101980.20
2018-06-22T08:37:35.373Z,101983.83
2018-06-22T08:40:03.645Z,101983.66
2018-06-22T08:42:31.877Z,101987.77
2018-06-22T08:45:00.107Z,102007.98
2018-06-22T08:47:28.422Z,101999.55
2018-06-22T08:49:56.661Z,102005.12
2018-06-22T08:52:24.862Z,102019.66
2018-06-22T08:54:53.065Z,102011.08
2018-06-22T08:57:21.320Z,102018.44
2018-06-22T08:59:49.543Z,102022.43
2018-06-22T09:02:17.853Z,102023.28
2018-06-22T09:04:46.218Z,102022.83
2018-06-22T09:07:14.463Z,102027.16
2018-06-22T09:09:42.716Z,102019.78
2018-06-22T09:12:10.973Z,102021.08
2018-06-22T09:14:39.185Z,102028.06
2018-06-22T09:17:07.397Z,102031.69
2018-06-22T09:19:35.725Z,102034.06
2018-06-22T09:22:03.917Z,102042.17
2018-06-22T09:24:32.173Z,102030.66
2018-06-22T09:27:00.405Z,102039.45
2018-06-22T09:29:28.616Z,102033.05
2018-06-22T09:31:56.849Z,102045.55
2018-06-22T09:34:25.108Z,102044.22
2018-06-22T09:36:53.478Z,102044.11
2018-06-22T09:39:21.704Z,102039.75
2018-06-22T09:41:49.937Z,102040.84
2018-06-22T09:44:29.445Z,102049.55
2018-06-22T09:46:58.139Z,102039.63
2018-06-22T09:49:26.780Z,102037.41
2018-06-22T09:51:55.377Z,102036.38
2018-06-22T09:54:23.640Z,102038.66
2018-06-22T09:56:52.367Z,102043.61
2018-06-22T09:59:20.937Z,102048.15
2018-06-22T10:01:49.466Z,102048.16
2018-06-22T10:04:17.688Z,102044.39
2018-06-22T10:06:45.962Z,102041.98
2018-06-22T10:09:14.212Z,102043.92
2018-06-22T10:11:42.513Z,102041.74
2018-06-22T10:14:10.776Z,102040.89
2018-06-22T10:16:38.991Z,102042.95
2018-06-22T10:19:07.242Z,102050.09
2018-06-22T10:21:35.441Z,102045.25
2018-06-22T10:24:03.737Z,102039.08
2018-06-22T10:26:32.084Z,102046.20
2018-06-22T10:29:00.299Z,102047.41
2018-06-22T10:31:28.553Z,102053.21
2018-06-22T10:33:56.823Z,102048.86
2018-06-22T10:36:25.038Z,102046.42
2018-06-22T10:38:53.356Z,102037.20
2018-06-22T10:41:21.669Z,102038.88
2018-06-22T10:43:49.912Z,102037.00
2018-06-22T10:46:18.199Z,102031.39
2018-06-22T10:48:46.528Z,102033.48
2018-06-22T10:51:14.864Z,102033.38
2018-06-22T10:53:43.145Z,102038.45
2018-06-22T10:56:11.463Z,102025.38
2018-06-22T10:58:39.756Z,102031.58
2018-06-22T11:01:08.021Z,102032.48
2018-06-22T11:03:36.300Z,102037.20
2018-06-22T11:06:04.606Z,102038.09
2018-06-22T11:08:32.839Z,102035.45
2018-06-22T11:11:01.054Z,102042.61
2018-06-22T11:13:29.352Z,102043.04
2018-06-22T11:15:57.577Z,102054.72
2018-06-22T11:18:25.922Z,102052.25
2018-06-22T11:20:54.127Z,102042.00
2018-06-22T11:23:22.364Z,102050.48
2018-06-22T11:25:50.625Z,102048.87
2018-06-22T11:28:18.961Z,102042.45
2018-06-22T11:30:47.245Z,102042.22
2018-06-22T11:33:15.448Z,102043.38
2018-06-22T11:35:43.886Z,102039.66
2018-06-22T11:38:12.009Z,102049.63
2018-06-22T11:40:40.292Z,102038.69
2018-06-22T11:43:09.060Z,102042.25
2018-06-22T11:45:37.563Z,102042.69
2018-06-22T11:48:05.989Z,102059.52
2018-06-22T11:50:34.257Z,102064.19
2018-06-22T11:53:02.473Z,102078.98
2018-06-22T11:55:30.712Z,102072.85
2018-06-22T11:57:58.973Z,102070.27
2018-06-22T12:00:27.263Z,102066.14
2018-06-22T12:02:55.485Z,102065.34
2018-06-22T12:05:23.776Z,102059.42
2018-06-22T12:07:52.085Z,102061.58
2018-06-22T12:10:20.384Z,102064.31
2018-06-22T12:12:48.673Z,102058.31
2018-06-22T12:15:16.921Z,102052.33
2018-06-22T12:17:45.116Z,102054.38
2018-06-22T12:20:13.389Z,102053.18
2018-06-22T12:22:41.589Z,102048.80
2018-06-22T12:25:09.829Z,102048.52
2018-06-22T12:27:38.038Z,102043.05
2018-06-22T12:30:06.269Z,102045.91
2018-06-22T12:32:34.512Z,102049.36
2018-06-22T12:35:02.769Z,102044.78
2018-06-22T12:37:31.035Z,102043.31
2018-06-22T12:39:59.316Z,102052.62
2018-06-22T12:42:27.569Z,102061.23
2018-06-22T12:44:55.889Z,102062.34
2018-06-22T12:47:24.114Z,102076.52
2018-06-22T12:49:52.400Z,102082.83
2018-06-22T12:52:20.597Z,102074.11
2018-06-22T12:54:48.882Z,102071.80
2018-06-22T12:57:17.140Z,102068.41
2018-06-22T12:59:45.390Z,102070.63
2018-06-22T13:02:13.639Z,102076.32
2018-06-22T13:04:41.857Z,102084.62
2018-06-22T13:07:10.093Z,102088.28
2018-06-22T13:09:38.362Z,102078.55
2018-06-22T13:12:06.724Z,102081.83
2018-06-22T13:14:35.041Z,102070.55
2018-06-22T13:17:03.352Z,102078.48
2018-06-22T13:19:31.589Z,102076.05
2018-06-22T13:21:59.813Z,102071.34
2018-06-22T13:24:28.096Z,102060.67
2018-06-22T13:26:56.317Z,102059.80
2018-06-22T13:29:24.548Z,102053.78
2018-06-22T13:31:52.850Z,102053.81
2018-06-22T13:34:21.120Z,102051.89
2018-06-22T13:36:49.401Z,102056.67
2018-06-22T13:39:18.856Z,102043.36
2018-06-22T13:41:47.745Z,102055.30
2018-06-22T13:44:15.993Z,102048.66
2018-06-22T13:46:44.952Z,102059.55
2018-06-22T13:49:13.423Z,102060.87
2018-06-22T13:51:41.673Z,102064.61
2018-06-22T13:54:10.140Z,102068.27
2018-06-22T13:56:38.614Z,102076.09
2018-06-22T13:59:06.905Z,102065.86
2018-06-22T14:01:35.596Z,102069.73
2018-06-22T14:04:09.075Z,102070.37
2018-06-22T14:06:42.681Z,102067.39
2018-06-22T14:09:13.654Z,102060.75
2018-06-22T14:11:42.560Z,102054.25
2018-06-22T14:14:10.888Z,102046.40
2018-06-22T14:16:39.416Z,102050.94
2018-06-22T14:19:08.140Z,102059.07
2018-06-22T14:21:36.573Z,102048.45
2018-06-22T14:24:05.450Z,102054.83
2018-06-22T14:26:33.960Z,102057.91
2018-06-22T14:29:02.357Z,102059.20
2018-06-22T14:31:31.047Z,102062.05
2018-06-22T14:33:59.282Z,102057.25
2018-06-22T14:36:27.549Z,102047.56
2018-06-22T14:38:55.986Z,102065.52
2018-06-22T14:41:24.372Z,102057.67
2018-06-22T14:43:52.776Z,102047.94
2018-06-22T14:46:21.045Z,102060.22
2018-06-22T14:48:49.690Z,102074.36
2018-06-22T14:51:17.896Z,102046.31
2018-06-22T14:53:51.612Z,102052.75
2018-06-22T14:56:25.267Z,102049.73
2018-06-22T14:58:58.857Z,102058.62
2018-06-22T15:01:32.816Z,102051.19
2018-06-22T15:04:06.517Z,102055.64
2018-06-22T15:06:40.012Z,102056.34
2018-06-22T15:09:09.812Z,102052.69
2018-06-22T15:11:38.465Z,102045.38
2018-06-22T15:14:06.760Z,102043.49
2018-06-22T15:16:35.198Z,102034.76
2018-06-22T15:19:03.624Z,102040.16
2018-06-22T15:21:31.892Z,102054.15
2018-06-22T15:24:00.164Z,102042.45
2018-06-22T15:26:28.568Z,102039.97
2018-06-22T15:28:56.861Z,102047.13
2018-06-22T15:31:25.393Z,102038.05
2018-06-22T15:33:58.904Z,102042.42
2018-06-22T15:36:32.709Z,102045.56
2018-06-22T15:39:07.372Z,102039.91
2018-06-22T15:41:40.787Z,102041.68
2018-06-22T15:44:14.460Z,102047.25
2018-06-22T15:46:48.061Z,102042.61
2018-06-22T15:49:21.768Z,102044.15
2018-06-22T15:51:55.541Z,102036.45
2018-06-22T15:54:29.174Z,102034.41
2018-06-22T15:56:57.669Z,102049.14
2018-06-22T15:59:26.154Z,102055.76
2018-06-22T16:01:58.644Z,102052.47
2018-06-22T16:04:26.931Z,102049.63
2018-06-22T16:06:55.169Z,102052.73
2018-06-22T16:09:23.397Z,102052.88
2018-06-22T16:11:51.681Z,102065.34
2018-06-22T16:14:25.169Z,102057.75
2018-06-22T16:16:58.649Z,102063.30
2018-06-22T16:20:35.172Z,102064.46
2018-06-22T16:23:08.785Z,102065.88
2018-06-22T16:25:42.381Z,102065.37
2018-06-22T16:28:10.626Z,102075.91
2018-06-22T16:30:38.988Z,102081.37
2018-06-22T16:33:07.177Z,102086.08
2018-06-22T16:35:35.624Z,102089.51
2018-06-22T16:38:04.226Z,102083.42
2018-06-22T16:40:32.486Z,102080.08
2018-06-22T16:43:00.744Z,102088.73
2018-06-22T16:45:28.974Z,102092.44
2018-06-22T16:47:57.396Z,102103.00
2018-06-22T16:50:26.365Z,102100.46
2018-06-22T16:52:54.730Z,102091.45
2018-06-22T16:55:22.988Z,102082.66
2018-06-22T16:57:51.360Z,102088.55
2018-06-22T17:00:19.561Z,102081.70
2018-06-22T17:02:47.820Z,102085.00
2018-06-22T17:05:16.067Z,102087.87
2018-06-22T17:07:49.596Z,102089.34
2018-06-22T17:10:23.041Z,102090.09
2018-06-22T17:12:56.581Z,102093.58
2018-06-22T17:15:31.013Z,102088.03
2018-06-22T17:18:04.481Z,102089.93
2018-06-22T17:20:32.758Z,102089.61
2018-06-22T17:23:01.068Z,102087.44
2018-06-22T17:25:29.325Z,102092.45
2018-06-22T17:27:57.576Z,102099.30
2018-06-22T17:30:25.847Z,102096.96
2018-06-22T17:32:54.061Z,102094.63
2018-06-22T17:35:22.381Z,102099.01
2018-06-22T17:37:50.638Z,102095.14
2018-06-22T17:40:18.888Z,102087.25
2018-06-22T17:42:47.476Z,102096.78
2018-06-22T17:45:15.769Z,102091.25
2018-06-22T17:47:44.044Z,102091.56
2018-06-22T17:50:17.585Z,102098.92
2018-06-22T17:52:45.908Z,102095.24
2018-06-22T17:55:14.181Z,102096.87
2018-06-22T17:57:42.761Z,102104.55
2018-06-22T18:00:18.408Z,102101.20
2018-06-22T18:02:52.105Z,102106.54
2018-06-22T18:05:25.710Z,102106.66
2018-06-22T18:07:53.980Z,102104.36
2018-06-22T18:10:27.425Z,102105.24
2018-06-22T18:12:56.858Z,102105.09
2018-06-22T18:15:24.995Z,102112.25
2018-06-22T18:17:53.261Z,102112.00
2018-06-22T18:20:21.493Z,102119.80
2018-06-22T18:22:49.810Z,102112.57
2018-06-22T18:25:18.077Z,102112.02
2018-06-22T18:27:46.329Z,102119.30
2018-06-22T18:30:15.833Z,102119.83
2018-06-22T18:32:44.088Z,102124.98
2018-06-22T18:35:13.828Z,102120.42
2018-06-22T18:37:42.226Z,102124.05
2018-06-22T18:40:11.234Z,102131.88
2018-06-22T18:42:39.748Z,102127.66
2018-06-22T18:45:09.567Z,102132.97
2018-06-22T18:47:37.804Z,102135.34
2018-06-22T18:50:06.037Z,102133.30
2018-06-22T18:52:39.784Z,102140.75
2018-06-22T18:55:13.653Z,102140.08
2018-06-22T18:57:47.141Z,102135.15
2018-06-22T19:00:20.577Z,102142.59
2018-06-22T19:02:54.289Z,102139.48
2018-06-22T19:05:22.716Z,102147.23
2018-06-22T19:07:51.053Z,102138.45
2018-06-22T19:10:19.321Z,102136.14
2018-06-22T19:12:47.741Z,102139.66
2018-06-22T19:15:15.967Z,102140.50
2018-06-22T19:17:44.338Z,102141.89
2018-06-22T19:20:12.622Z,102146.03
2018-06-22T19:22:40.868Z,102143.01
2018-06-22T19:25:09.116Z,102146.83
2018-06-22T19:27:37.509Z,102148.06
2018-06-22T19:30:06.437Z,102155.23
2018-06-22T19:32:34.647Z,102158.31
2018-06-22T19:35:08.236Z,102160.05
2018-06-22T19:37:36.449Z,102159.61
2018-06-22T19:40:04.744Z,102164.27
2018-06-22T19:42:32.941Z,102164.54
2018-06-22T19:45:06.431Z,102166.86
2018-06-22T19:47:39.913Z,102174.52
2018-06-22T19:50:13.445Z,102174.42
2018-06-22T19:52:46.878Z,102173.00
2018-06-22T19:55:15.129Z,102175.75
2018-06-22T19:57:43.501Z,102180.99
2018-06-22T20:00:12.104Z,102181.35
2018-06-22T20:02:40.381Z,102186.11
2018-06-22T20:05:08.688Z,102190.61
2018-06-22T20:07:36.940Z,102188.36
2018-06-22T20:10:05.687Z,102183.64
2018-06-22T20:12:33.918Z,102191.69
2018-06-22T20:15:02.181Z,102197.78
2018-06-22T20:17:30.548Z,102197.36
2018-06-22T20:19:58.844Z,102193.16
2018-06-22T20:22:27.085Z,102190.88
2018-06-22T20:25:00.708Z,102194.55
2018-06-22T20:27:29.017Z,102194.75
2018-06-22T20:29:57.301Z,102196.87
2018-06-22T20:32:25.557Z,102204.28
2018-06-22T20:34:59.276Z,102201.88
2018-06-22T20:37:32.968Z,102208.16
2018-06-22T20:40:06.285Z,102207.36
2018-06-22T20:42:39.933Z,102208.13
2018-06-22T20:45:13.472Z,102210.57
2018-06-22T20:47:47.233Z,102210.70
2018-06-22T20:50:20.872Z,102218.02
2018-06-22T20:52:49.158Z,102218.16
2018-06-22T20:55:17.458Z,102224.23
2018-06-22T20:57:45.709Z,102217.61
2018-06-22T21:00:13.984Z,102226.59
2018-06-22T21:02:42.231Z,102228.06
2018-06-22T21:05:10.513Z,102232.08
2018-06-22T21:07:38.741Z,102227.88
2018-06-22T21:10:07.297Z,102224.37
2018-06-22T21:12:40.418Z,102230.19
2018-06-22T21:15:04.050Z,102223.77
2018-06-22T21:17:32.265Z,102231.53
2018-06-22T21:20:00.488Z,102234.84
2018-06-22T21:22:28.713Z,102236.02
2018-06-22T21:24:56.943Z,102233.50
2018-06-22T21:27:30.423Z,102229.99
2018-06-22T21:30:04.061Z,102231.69
2018-06-22T21:32:37.584Z,102234.35
2018-06-22T21:35:11.260Z,102234.84
2018-06-22T21:37:44.904Z,102235.69
2018-06-22T21:40:13.137Z,102237.15
2018-06-22T21:42:41.374Z,102243.33
2018-06-22T21:45:09.612Z,102238.24
2018-06-22T21:47:37.917Z,102241.64
2018-06-22T21:50:06.169Z,102241.80
2018-06-22T21:52:34.378Z,102243.01
2018-06-22T21:55:02.640Z,102242.04
2018-06-22T21:57:30.888Z,102241.31
2018-06-22T21:59:59.165Z,102249.67
2018-06-22T22:02:27.425Z,102253.55
2018-06-22T22:04:55.647Z,102256.70
2018-06-22T22:07:23.890Z,102257.67
2018-06-22T22:09:52.129Z,102258.30
2018-06-22T22:12:20.353Z,102258.15
2018-06-22T22:14:48.568Z,102257.78
2018-06-22T22:17:16.808Z,102254.39
2018-06-22T22:19:45.053Z,102259.36
2018-06-22T22:22:13.300Z,102255.84
2018-06-22T22:24:41.533Z,102260.08
2018-06-22T22:27:09.830Z,102263.38
2018-06-22T22:29:38.120Z,102263.72
2018-06-22T22:32:06.400Z,102257.54
2018-06-22T22:34:34.704Z,102257.54
2018-06-22T22:37:02.969Z,102267.50
2018-06-22T22:39:31.213Z,102260.11
2018-06-22T22:41:59.464Z,102267.37
2018-06-22T22:44:27.689Z,102262.41
2018-06-22T22:46:56.069Z,102254.42
2018-06-22T22:49:24.346Z,102259.75
2018-06-22T22:51:52.561Z,102261.56
2018-06-22T22:54:20.809Z,102255.14
2018-06-22T22:56:49.041Z,102257.32
2018-06-22T22:59:17.260Z,102249.81
2018-06-22T23:01:45.609Z,102241.13
2018-06-22T23:04:13.858Z,102240.39
2018-06-22T23:06:42.208Z,102245.36
2018-06-22T23:09:10.635Z,102237.61
2018-06-22T23:11:38.963Z,102230.70
2018-06-22T23:14:07.241Z,102235.30
2018-06-22T23:16:35.500Z,102242.46
2018-06-22T23:19:03.739Z,102237.97
2018-06-22T23:21:31.965Z,102237.23
2018-06-22T23:24:00.327Z,102225.27
2018-06-22T23:26:28.540Z,102226.34
2018-06-22T23:28:56.837Z,102225.00
2018-06-22T23:31:25.109Z,102221.50
2018-06-22T23:33:53.336Z,102220.53
2018-06-22T23:36:21.609Z,102219.80
2018-06-22T23:38:49.872Z,102224.06
2018-06-22T23:41:18.136Z,102232.27
2018-06-22T23:43:46.345Z,102231.66
2018-06-22T23:46:14.604Z,102233.84
2018-06-22T23:48:42.821Z,102232.98
2018-06-22T23:51:11.107Z,102232.88
2018-06-22T23:53:39.373Z,102234.57
2018-06-22T23:56:07.635Z,102229.11
2018-06-22T23:58:35.876Z,102222.34
